createdAt,value
2018-07-20T00:01:17.867Z,18.80
2018-07-20T00:03:46.020Z,18.70
2018-07-20T00:06:14.814Z,18.70
2018-07-20T00:08:43.285Z,18.70
2018-07-20T00:11:11.629Z,18.60
2018-07-20T00:13:39.902Z,18.60
2018-07-20T00:16:08.056Z,18.60
2018-07-20T00:18:36.345Z,18.50
2018-07-20T00:21:04.589Z,18.50
2018-07-20T00:23:32.873Z,18.50
2018-07-20T00:26:01.100Z,18.40
2018-07-20T00:28:29.453Z,18.30
2018-07-20T00:30:57.611Z,18.30
2018-07-20T00:33:32.135Z,18.30
2018-07-20T00:36:00.315Z,18.20
2018-07-20T00:38:28.531Z,18.20
2018-07-20T00:40:56.742Z,18.20
2018-07-20T00:43:24.898Z,18.10
2018-07-20T00:45:53.070Z,18.10
2018-07-20T00:48:21.204Z,18.10
2018-07-20T00:50:49.488Z,18.00
2018-07-20T00:53:17.693Z,18.00
2018-07-20T00:55:45.919Z,18.00
2018-07-20T00:58:14.108Z,18.00
2018-07-20T01:00:42.260Z,18.00
2018-07-20T01:03:10.464Z,18.00
2018-07-20T01:05:38.645Z,17.90
2018-07-20T01:08:06.944Z,17.90
2018-07-20T01:10:35.152Z,17.90
2018-07-20T01:13:03.452Z,17.80
2018-07-20T01:15:31.581Z,17.80
2018-07-20T01:17:59.704Z,17.70
2018-07-20T01:20:27.856Z,17.70
2018-07-20T01:22:56.049Z,17.70
2018-07-20T01:25:24.243Z,17.60
2018-07-20T01:27:52.497Z,17.60
2018-07-20T01:30:20.728Z,17.60
2018-07-20T01:32:49.011Z,17.60
2018-07-20T01:35:17.237Z,17.50
2018-07-20T01:37:45.550Z,17.50
2018-07-20T01:40:13.733Z,17.50
2018-07-20T01:42:42.056Z,17.50
2018-07-20T01:45:10.294Z,17.40
2018-07-20T01:47:38.798Z,17.40
2018-07-20T01:50:07.632Z,17.30
2018-07-20T01:52:35.759Z,17.30
2018-07-20T01:55:03.916Z,17.30
2018-07-20T01:57:32.124Z,17.20
2018-07-20T02:00:00.318Z,17.20
2018-07-20T02:02:28.554Z,17.20
2018-07-20T02:04:56.816Z,17.20
2018-07-20T02:07:25.180Z,17.10
2018-07-20T02:09:53.320Z,17.10
2018-07-20T02:12:21.574Z,17.10
2018-07-20T02:14:49.822Z,17.10
2018-07-20T02:17:17.972Z,17.10
2018-07-20T02:19:46.138Z,17.10
2018-07-20T02:22:14.449Z,17.00
2018-07-20T02:24:42.639Z,17.00
2018-07-20T02:27:10.871Z,17.00
2018-07-20T02:29:39.070Z,17.00
2018-07-20T02:32:07.320Z,17.00
2018-07-20T02:34:35.446Z,17.00
2018-07-20T02:37:03.623Z,17.00
2018-07-20T02:39:31.796Z,16.90
2018-07-20T02:41:59.906Z,16.90
2018-07-20T02:44:28.024Z,16.90
2018-07-20T02:46:56.204Z,16.80
2018-07-20T02:49:24.330Z,16.80
2018-07-20T02:51:52.566Z,16.80
2018-07-20T02:54:20.767Z,16.80
2018-07-20T02:56:49.964Z,16.80
2018-07-20T02:59:18.134Z,16.80
2018-07-20T03:01:46.361Z,16.80
2018-07-20T03:04:14.521Z,16.70
2018-07-20T03:06:42.649Z,16.70
2018-07-20T03:09:12.505Z,16.70
2018-07-20T03:11:41.065Z,16.70
2018-07-20T03:14:09.283Z,16.70
2018-07-20T03:16:37.487Z,16.70
2018-07-20T03:19:05.891Z,16.70
2018-07-20T03:21:34.025Z,16.70
2018-07-20T03:24:02.173Z,16.80
2018-07-20T03:26:30.326Z,16.80
2018-07-20T03:28:58.591Z,16.80
2018-07-20T03:31:26.873Z,16.90
2018-07-20T03:33:55.099Z,16.90
2018-07-20T03:36:23.221Z,16.90
2018-07-20T03:38:51.609Z,17.00
2018-07-20T03:41:19.799Z,17.10
2018-07-20T03:43:48.014Z,17.20
2018-07-20T03:46:16.240Z,17.30
2018-07-20T03:48:44.409Z,17.40
2018-07-20T03:51:12.583Z,17.40
2018-07-20T03:53:40.755Z,17.50
2018-07-20T03:56:08.877Z,17.60
2018-07-20T03:58:38.847Z,17.80
2018-07-20T04:01:07.026Z,17.80
2018-07-20T04:03:35.340Z,17.90
2018-07-20T04:06:03.461Z,18.00
2018-07-20T04:08:31.590Z,18.30
2018-07-20T04:10:59.723Z,18.40
2018-07-20T04:13:27.959Z,19.10
2018-07-20T04:15:56.109Z,20.30
2018-07-20T04:18:24.237Z,21.50
2018-07-20T04:20:52.823Z,22.60
2018-07-20T04:23:21.002Z,23.40
2018-07-20T04:25:49.169Z,24.30
2018-07-20T04:28:17.313Z,25.40
2018-07-20T04:30:45.481Z,26.20
2018-07-20T04:33:13.649Z,27.00
2018-07-20T04:35:41.755Z,27.60
2018-07-20T04:38:09.999Z,28.00
2018-07-20T04:40:38.265Z,28.10
2018-07-20T04:43:06.608Z,28.60
2018-07-20T04:45:34.853Z,29.60
2018-07-20T04:48:03.103Z,30.70
2018-07-20T04:50:31.314Z,31.50
2018-07-20T04:52:59.549Z,32.30
2018-07-20T04:55:27.790Z,33.00
2018-07-20T04:57:56.072Z,33.70
2018-07-20T05:00:24.329Z,34.50
2018-07-20T05:02:52.578Z,35.20
2018-07-20T05:05:20.871Z,35.80
2018-07-20T05:07:49.103Z,36.30
2018-07-20T05:10:17.431Z,36.90
2018-07-20T05:12:45.655Z,37.60
2018-07-20T05:15:13.843Z,38.30
2018-07-20T05:17:42.051Z,38.90
2018-07-20T05:20:10.223Z,39.50
2018-07-20T05:22:38.565Z,40.10
2018-07-20T05:25:06.790Z,40.50
2018-07-20T05:27:35.273Z,41.00
2018-07-20T05:30:03.430Z,41.50
2018-07-20T05:32:31.602Z,41.90
2018-07-20T05:34:59.741Z,42.40
2018-07-20T05:37:28.090Z,42.50
2018-07-20T05:39:56.260Z,42.80
2018-07-20T05:42:24.434Z,43.40
2018-07-20T05:44:52.592Z,44.00
2018-07-20T05:47:20.736Z,44.40
2018-07-20T05:49:48.908Z,44.70
2018-07-20T05:52:17.052Z,45.10
2018-07-20T05:54:45.515Z,45.90
2018-07-20T05:57:13.715Z,46.60
2018-07-20T05:59:41.940Z,45.80
2018-07-20T06:02:10.625Z,45.30
2018-07-20T06:04:38.816Z,43.60
2018-07-20T06:07:06.972Z,41.60
2018-07-20T06:09:35.170Z,40.30
2018-07-20T06:12:04.122Z,39.70
2018-07-20T06:14:32.284Z,40.30
2018-07-20T06:17:00.432Z,39.30
2018-07-20T06:19:28.609Z,38.90
2018-07-20T06:21:56.737Z,39.80
2018-07-20T06:24:24.888Z,39.80
2018-07-20T06:26:53.168Z,38.80
2018-07-20T06:29:21.298Z,37.80
2018-07-20T06:31:49.418Z,38.90
2018-07-20T06:34:17.798Z,38.70
2018-07-20T06:36:46.011Z,40.20
2018-07-20T06:39:14.310Z,42.20
2018-07-20T06:41:42.714Z,43.00
2018-07-20T06:44:10.860Z,44.40
2018-07-20T06:46:39.026Z,46.20
2018-07-20T06:49:07.938Z,47.70
2018-07-20T06:51:36.914Z,49.00
2018-07-20T06:54:05.068Z,49.70
2018-07-20T06:56:33.262Z,49.90
2018-07-20T06:59:01.558Z,49.90
2018-07-20T07:01:29.863Z,50.00
2018-07-20T07:03:58.016Z,49.50
2018-07-20T07:06:26.420Z,49.50
2018-07-20T07:08:55.133Z,50.40
2018-07-20T07:11:23.350Z,50.80
2018-07-20T07:13:51.752Z,49.60
2018-07-20T07:16:20.073Z,49.90
2018-07-20T07:18:48.960Z,49.90
2018-07-20T07:21:17.528Z,49.80
2018-07-20T07:23:45.782Z,48.80
2018-07-20T07:26:13.946Z,47.00
2018-07-20T07:28:42.130Z,46.60
2018-07-20T07:31:10.395Z,45.80
2018-07-20T07:33:38.667Z,45.70
2018-07-20T07:36:07.153Z,45.70
2018-07-20T07:38:36.553Z,46.10
2018-07-20T07:41:06.089Z,46.50
2018-07-20T07:43:34.440Z,46.50
2018-07-20T07:46:02.604Z,46.10
2018-07-20T07:48:30.803Z,44.80
2018-07-20T07:50:59.195Z,44.00
2018-07-20T07:53:27.651Z,43.20
2018-07-20T07:55:56.021Z,43.00
2018-07-20T07:58:25.681Z,42.50
2018-07-20T08:00:55.074Z,42.50
2018-07-20T08:03:23.304Z,42.50
2018-07-20T08:05:51.487Z,41.80
2018-07-20T08:08:19.689Z,41.40
2018-07-20T08:10:47.978Z,41.20
2018-07-20T08:13:16.184Z,41.30
2018-07-20T08:15:44.878Z,41.10
2018-07-20T08:18:13.005Z,41.00
2018-07-20T08:20:41.164Z,40.80
2018-07-20T08:23:09.397Z,40.40
2018-07-20T08:25:37.687Z,40.20
2018-07-20T08:28:05.971Z,39.80
2018-07-20T08:30:34.143Z,39.70
2018-07-20T08:33:02.393Z,39.60
2018-07-20T08:35:30.661Z,39.50
2018-07-20T08:37:59.287Z,39.30
2018-07-20T08:40:27.463Z,38.90
2018-07-20T08:42:55.636Z,38.60
2018-07-20T08:45:23.876Z,38.40
2018-07-20T08:47:52.191Z,38.10
2018-07-20T08:50:20.396Z,37.50
2018-07-20T08:52:48.535Z,37.30
2018-07-20T08:55:16.766Z,36.80
2018-07-20T08:57:44.935Z,36.40
2018-07-20T09:00:13.201Z,36.00
2018-07-20T09:02:41.360Z,35.80
2018-07-20T09:05:09.549Z,35.20
2018-07-20T09:07:37.846Z,35.10
2018-07-20T09:10:06.026Z,35.10
2018-07-20T09:12:34.402Z,34.90
2018-07-20T09:15:02.566Z,34.50
2018-07-20T09:17:30.720Z,34.40
2018-07-20T09:19:59.090Z,34.20
2018-07-20T09:22:27.513Z,34.10
2018-07-20T09:24:55.730Z,33.50
2018-07-20T09:27:23.914Z,33.30
2018-07-20T09:29:52.220Z,33.00
2018-07-20T09:32:20.425Z,32.80
2018-07-20T09:34:48.656Z,32.80
2018-07-20T09:37:16.882Z,32.70
2018-07-20T09:39:45.086Z,32.50
2018-07-20T09:42:13.494Z,32.40
2018-07-20T09:44:42.048Z,32.30
2018-07-20T09:47:11.258Z,32.10
2018-07-20T09:49:40.385Z,32.00
2018-07-20T09:52:08.708Z,32.00
2018-07-20T09:54:36.903Z,31.90
2018-07-20T09:57:05.178Z,31.80
2018-07-20T09:59:33.409Z,31.60
2018-07-20T10:02:01.514Z,31.50
2018-07-20T10:04:29.751Z,31.50
2018-07-20T10:06:58.170Z,31.40
2018-07-20T10:09:26.361Z,31.20
2018-07-20T10:11:54.603Z,31.00
2018-07-20T10:14:22.812Z,31.00
2018-07-20T10:16:50.993Z,30.90
2018-07-20T10:19:19.371Z,30.70
2018-07-20T10:21:47.582Z,30.50
2018-07-20T10:24:15.737Z,30.50
2018-07-20T10:26:43.937Z,30.50
2018-07-20T10:29:12.129Z,30.60
2018-07-20T10:31:40.403Z,30.60
2018-07-20T10:34:08.633Z,30.50
2018-07-20T10:36:36.830Z,30.40
2018-07-20T10:39:07.272Z,30.50
2018-07-20T10:41:35.450Z,30.60
2018-07-20T10:44:03.707Z,30.40
2018-07-20T10:46:31.882Z,30.40
2018-07-20T10:49:00.195Z,30.40
2018-07-20T10:51:28.372Z,30.50
2018-07-20T10:53:56.602Z,30.70
2018-07-20T10:56:25.293Z,30.80
2018-07-20T10:58:54.462Z,30.90
2018-07-20T11:01:22.910Z,30.80
2018-07-20T11:03:51.106Z,30.80
2018-07-20T11:06:19.373Z,31.00
2018-07-20T11:08:47.560Z,31.30
2018-07-20T11:11:15.850Z,31.40
2018-07-20T11:13:44.179Z,31.20
2018-07-20T11:16:12.404Z,31.10
2018-07-20T11:18:40.579Z,31.10
2018-07-20T11:21:08.842Z,31.00
2018-07-20T11:23:37.327Z,31.10
2018-07-20T11:26:05.943Z,31.00
2018-07-20T11:28:34.180Z,30.90
2018-07-20T11:31:02.472Z,31.10
2018-07-20T11:33:30.717Z,31.40
2018-07-20T11:35:59.081Z,31.60
2018-07-20T11:38:27.359Z,31.60
2018-07-20T11:40:56.244Z,31.50
2018-07-20T11:43:24.515Z,31.50
2018-07-20T11:45:52.726Z,31.40
2018-07-20T11:48:21.267Z,31.30
2018-07-20T11:50:49.589Z,31.40
2018-07-20T11:53:17.890Z,31.20
2018-07-20T11:55:46.108Z,31.10
2018-07-20T11:58:14.330Z,30.90
2018-07-20T12:00:42.921Z,30.80
2018-07-20T12:03:11.170Z,30.80
2018-07-20T12:05:39.509Z,30.80
2018-07-20T12:08:07.783Z,30.80
2018-07-20T12:10:36.077Z,30.50
2018-07-20T12:13:04.353Z,30.40
2018-07-20T12:15:32.594Z,30.40
2018-07-20T12:18:00.882Z,30.40
2018-07-20T12:20:29.855Z,30.30
2018-07-20T12:22:58.071Z,30.10
2018-07-20T12:25:26.368Z,30.10
2018-07-20T12:27:54.868Z,30.10
2018-07-20T12:30:23.179Z,29.80
2018-07-20T12:32:51.543Z,29.70
2018-07-20T12:35:19.860Z,29.80
2018-07-20T12:37:48.161Z,29.80
2018-07-20T12:40:16.544Z,29.80
2018-07-20T12:42:44.980Z,29.90
2018-07-20T12:45:14.001Z,30.00
2018-07-20T12:47:42.279Z,30.10
2018-07-20T12:50:10.725Z,30.00
2018-07-20T12:52:39.074Z,30.00
2018-07-20T12:55:07.330Z,30.10
2018-07-20T12:57:35.729Z,30.20
2018-07-20T13:00:03.990Z,30.30
2018-07-20T13:02:32.214Z,30.50
2018-07-20T13:05:00.546Z,30.80
2018-07-20T13:07:28.805Z,31.10
2018-07-20T13:09:57.219Z,31.20
2018-07-20T13:12:25.505Z,31.20
2018-07-20T13:14:53.762Z,31.10
2018-07-20T13:17:22.069Z,31.00
2018-07-20T13:19:50.674Z,31.10
2018-07-20T13:22:19.108Z,31.20
2018-07-20T13:24:47.446Z,31.20
2018-07-20T13:27:15.935Z,31.20
2018-07-20T13:29:44.558Z,31.10
2018-07-20T13:32:13.001Z,31.20
2018-07-20T13:34:41.249Z,31.40
2018-07-20T13:37:09.857Z,31.60
2018-07-20T13:39:38.164Z,31.70
2018-07-20T13:42:06.565Z,31.80
2018-07-20T13:44:34.791Z,31.80
2018-07-20T13:47:03.089Z,31.90
2018-07-20T13:49:31.585Z,31.90
2018-07-20T13:51:59.955Z,31.80
2018-07-20T13:54:28.130Z,31.60
2018-07-20T13:56:56.348Z,31.60
2018-07-20T13:59:24.774Z,31.60
2018-07-20T14:01:53.060Z,31.60
2018-07-20T14:04:21.384Z,31.40
2018-07-20T14:06:49.797Z,30.90
2018-07-20T14:09:18.033Z,30.40
2018-07-20T14:11:46.232Z,29.80
2018-07-20T14:14:14.589Z,29.20
2018-07-20T14:16:42.813Z,29.10
2018-07-20T14:19:11.807Z,29.20
2018-07-20T14:21:40.002Z,29.30
2018-07-20T14:24:08.303Z,29.20
2018-07-20T14:26:36.594Z,29.20
2018-07-20T14:29:04.802Z,29.30
2018-07-20T14:31:34.107Z,29.20
2018-07-20T14:34:02.405Z,28.90
2018-07-20T14:36:30.686Z,28.50
2018-07-20T14:38:58.940Z,28.40
2018-07-20T14:41:27.212Z,28.30
2018-07-20T14:43:55.475Z,28.10
2018-07-20T14:46:23.649Z,28.20
2018-07-20T14:48:52.106Z,28.30
2018-07-20T14:51:20.394Z,28.50
2018-07-20T14:53:48.622Z,28.40
2018-07-20T14:56:16.805Z,28.50
2018-07-20T14:58:45.021Z,28.50
2018-07-20T15:01:13.667Z,28.50
2018-07-20T15:03:41.917Z,28.40
2018-07-20T15:06:10.090Z,28.40
2018-07-20T15:08:38.382Z,28.30
2018-07-20T15:11:06.649Z,28.30
2018-07-20T15:13:35.204Z,28.00
2018-07-20T15:16:03.541Z,27.90
2018-07-20T15:18:31.822Z,28.00
2018-07-20T15:21:00.091Z,28.00
2018-07-20T15:23:28.929Z,28.00
2018-07-20T15:25:57.166Z,27.90
2018-07-20T15:28:25.480Z,27.90
2018-07-20T15:30:53.733Z,27.90
2018-07-20T15:33:22.063Z,27.90
2018-07-20T15:35:50.374Z,27.90
2018-07-20T15:38:18.751Z,27.80
2018-07-20T15:40:46.993Z,27.70
2018-07-20T15:43:15.337Z,27.70
2018-07-20T15:45:51.970Z,27.60
2018-07-20T15:48:12.867Z,27.50
2018-07-20T15:50:41.096Z,27.30
2018-07-20T15:53:37.678Z,27.30
2018-07-20T15:55:37.654Z,27.40
2018-07-20T15:58:05.992Z,27.40
2018-07-20T16:00:34.420Z,27.20
2018-07-20T16:03:02.766Z,27.00
2018-07-20T16:05:31.284Z,27.10
2018-07-20T16:08:00.741Z,27.10
2018-07-20T16:10:29.028Z,27.10
2018-07-20T16:12:57.394Z,27.10
2018-07-20T16:15:26.023Z,27.20
2018-07-20T16:17:54.256Z,27.10
2018-07-20T16:20:23.145Z,27.10
2018-07-20T16:22:51.506Z,27.10
2018-07-20T16:25:19.625Z,27.00
2018-07-20T16:27:47.890Z,26.80
2018-07-20T16:30:16.267Z,26.80
2018-07-20T16:32:44.521Z,26.70
2018-07-20T16:35:12.799Z,26.70
2018-07-20T16:37:41.119Z,26.70
2018-07-20T16:40:09.277Z,26.70
2018-07-20T16:42:37.530Z,26.70
2018-07-20T16:45:05.788Z,26.80
2018-07-20T16:47:34.506Z,26.80
2018-07-20T16:50:02.792Z,26.80
2018-07-20T16:52:31.071Z,26.80
2018-07-20T16:55:00.061Z,26.80
2018-07-20T16:57:28.335Z,26.80
2018-07-20T16:59:56.596Z,26.80
2018-07-20T17:02:24.784Z,26.70
2018-07-20T17:04:53.164Z,26.60
2018-07-20T17:07:21.470Z,26.60
2018-07-20T17:09:49.648Z,26.60
2018-07-20T17:12:17.926Z,26.50
2018-07-20T17:14:46.255Z,26.40
2018-07-20T17:17:14.558Z,26.40
2018-07-20T17:19:43.014Z,26.40
2018-07-20T17:22:11.221Z,26.30
2018-07-20T17:24:39.408Z,26.30
2018-07-20T17:27:07.636Z,26.30
2018-07-20T17:29:35.892Z,26.30
2018-07-20T17:32:04.305Z,26.20
2018-07-20T17:34:32.747Z,26.20
2018-07-20T17:37:01.159Z,26.10
2018-07-20T17:39:29.412Z,26.10
2018-07-20T17:41:57.648Z,26.10
2018-07-20T17:44:25.957Z,26.00
2018-07-20T17:46:54.210Z,26.00
2018-07-20T17:49:22.783Z,25.90
2018-07-20T17:51:51.410Z,25.80
2018-07-20T17:54:19.694Z,25.80
2018-07-20T17:56:47.936Z,25.80
2018-07-20T17:59:16.129Z,25.70
2018-07-20T18:01:44.401Z,25.70
2018-07-20T18:04:12.934Z,25.60
2018-07-20T18:06:41.436Z,25.60
2018-07-20T18:09:10.477Z,25.50
2018-07-20T18:11:38.774Z,25.40
2018-07-20T18:14:07.674Z,25.40
2018-07-20T18:16:36.000Z,25.30
2018-07-20T18:19:04.220Z,25.20
2018-07-20T18:21:32.406Z,25.20
2018-07-20T18:24:00.644Z,25.10
2018-07-20T18:26:28.976Z,25.00
2018-07-20T18:28:57.243Z,24.90
2018-07-20T18:31:25.564Z,24.90
2018-07-20T18:33:54.042Z,24.80
2018-07-20T18:36:22.354Z,24.70
2018-07-20T18:38:50.582Z,24.60
2018-07-20T18:41:18.798Z,24.60
2018-07-20T18:43:47.014Z,24.50
2018-07-20T18:46:15.304Z,24.40
2018-07-20T18:48:43.596Z,24.30
2018-07-20T18:51:11.856Z,24.30
2018-07-20T18:53:40.062Z,24.20
2018-07-20T18:56:08.391Z,24.10
2018-07-20T18:58:36.633Z,24.00
2018-07-20T19:01:04.839Z,24.00
2018-07-20T19:03:33.295Z,23.90
2018-07-20T19:06:03.318Z,23.80
2018-07-20T19:08:31.538Z,23.70
2018-07-20T19:10:59.734Z,23.70
2018-07-20T19:13:28.287Z,23.60
2018-07-20T19:15:56.539Z,23.50
2018-07-20T19:18:24.901Z,23.50
2018-07-20T19:20:53.326Z,23.40
2018-07-20T19:23:21.582Z,23.30
2018-07-20T19:25:49.844Z,23.30
2018-07-20T19:28:18.114Z,23.20
2018-07-20T19:30:46.293Z,23.10
2018-07-20T19:33:14.532Z,23.10
2018-07-20T19:35:42.883Z,23.00
2018-07-20T19:38:11.180Z,23.00
2018-07-20T19:40:42.516Z,22.90
2018-07-20T19:43:10.802Z,22.90
2018-07-20T19:45:39.346Z,22.80
2018-07-20T19:48:07.760Z,22.70
2018-07-20T19:50:36.081Z,22.70
2018-07-20T19:53:04.339Z,22.70
2018-07-20T19:55:32.813Z,22.60
2018-07-20T19:58:01.278Z,22.60
2018-07-20T20:00:29.569Z,22.50
2018-07-20T20:02:57.873Z,22.40
2018-07-20T20:05:26.239Z,22.40
2018-07-20T20:07:54.523Z,22.40
2018-07-20T20:10:22.789Z,22.30
2018-07-20T20:12:51.107Z,22.30
2018-07-20T20:15:19.445Z,22.20
2018-07-20T20:17:47.809Z,22.20
2018-07-20T20:20:16.889Z,22.20
2018-07-20T20:22:45.522Z,22.10
2018-07-20T20:25:14.009Z,22.10
2018-07-20T20:27:42.601Z,22.10
2018-07-20T20:30:10.852Z,22.10
2018-07-20T20:32:39.107Z,22.20
2018-07-20T20:35:07.363Z,22.20
2018-07-20T20:37:35.614Z,22.10
2018-07-20T20:40:04.450Z,22.10
2018-07-20T20:42:32.674Z,22.20
2018-07-20T20:45:01.191Z,22.10
2018-07-20T20:47:29.889Z,22.10
2018-07-20T20:49:58.115Z,22.10
2018-07-20T20:52:26.478Z,22.10
2018-07-20T20:54:54.751Z,22.00
2018-07-20T20:57:22.964Z,22.00
2018-07-20T20:59:51.337Z,22.00
2018-07-20T21:02:19.636Z,21.90
2018-07-20T21:04:47.936Z,21.90
2018-07-20T21:07:16.201Z,21.90
2018-07-20T21:09:44.565Z,21.80
2018-07-20T21:12:12.922Z,21.80
2018-07-20T21:14:41.070Z,21.70
2018-07-20T21:17:09.417Z,21.70
2018-07-20T21:19:37.819Z,21.70
2018-07-20T21:22:06.249Z,21.60
2018-07-20T21:24:34.489Z,21.60
2018-07-20T21:27:02.765Z,21.60
2018-07-20T21:29:31.122Z,21.50
2018-07-20T21:31:59.486Z,21.50
2018-07-20T21:34:27.680Z,21.50
2018-07-20T21:36:55.893Z,21.40
2018-07-20T21:39:24.146Z,21.30
2018-07-20T21:41:52.373Z,21.30
2018-07-20T21:44:20.669Z,21.30
2018-07-20T21:46:48.869Z,21.30
2018-07-20T21:49:17.026Z,21.20
2018-07-20T21:51:45.215Z,21.20
2018-07-20T21:54:13.885Z,21.20
2018-07-20T21:56:42.077Z,21.20
2018-07-20T21:59:10.373Z,21.20
2018-07-20T22:01:38.593Z,21.10
2018-07-20T22:04:06.910Z,21.10
2018-07-20T22:06:35.125Z,21.10
2018-07-20T22:09:03.425Z,21.00
2018-07-20T22:11:31.616Z,21.00
2018-07-20T22:14:00.334Z,21.00
2018-07-20T22:16:28.658Z,20.90
2018-07-20T22:18:56.901Z,20.90
2018-07-20T22:21:25.136Z,20.80
2018-07-20T22:23:53.346Z,20.80
2018-07-20T22:26:21.545Z,20.80
2018-07-20T22:28:49.766Z,20.70
2018-07-20T22:31:18.157Z,20.70
2018-07-20T22:33:47.190Z,20.60
2018-07-20T22:36:15.359Z,20.50
2018-07-20T22:38:43.644Z,20.50
2018-07-20T22:41:12.002Z,20.40
2018-07-20T22:43:40.279Z,20.30
2018-07-20T22:46:08.826Z,20.30
2018-07-20T22:48:37.094Z,20.20
2018-07-20T22:51:05.333Z,20.20
2018-07-20T22:53:33.602Z,20.20
2018-07-20T22:56:01.845Z,20.10
2018-07-20T22:58:30.162Z,20.10
2018-07-20T23:00:58.429Z,20.00
2018-07-20T23:03:26.699Z,20.00
2018-07-20T23:05:55.352Z,19.90
2018-07-20T23:08:23.564Z,19.90
2018-07-20T23:10:51.779Z,19.80
2018-07-20T23:13:20.045Z,19.80
2018-07-20T23:15:48.916Z,19.80
2018-07-20T23:18:17.215Z,19.70
2018-07-20T23:20:45.663Z,19.70
2018-07-20T23:23:13.888Z,19.60
2018-07-20T23:25:42.043Z,19.60
2018-07-20T23:28:10.244Z,19.60
2018-07-20T23:30:39.047Z,19.50
2018-07-20T23:33:07.209Z,19.50
2018-07-20T23:35:35.360Z,19.50
2018-07-20T23:38:04.233Z,19.50
2018-07-20T23:40:32.410Z,19.50
2018-07-20T23:43:00.574Z,19.40
2018-07-20T23:45:28.844Z,19.40
2018-07-20T23:47:57.256Z,19.40
2018-07-20T23:50:25.397Z,19.40
2018-07-20T23:52:53.678Z,19.40
2018-07-20T23:55:21.838Z,19.30
2018-07-20T23:57:50.021Z,19.30
